Time;durP1;ratioP1;P1;durP2;ratioP2;P2;SDS_P1;SDS_P2;PMS_P1;PMS_P2;Temp;Humidity;BMP_temperature;BMP_pressure;BME280_temperature;BME280_humidity;BME280_pressure;Samples;Min_cycle;Max_cycle;Signal;HPM_P1;HPM_P2
2020/12/21 00:02:12;;;;;;;;;;;;;;;19.38;36.76;100901.56;5067109;28;20003;-64
2020/12/21 00:04:38;;;;;;;;;;;;;;;19.69;36.16;100904.72;5074029;28;20027;-63
2020/12/21 00:07:04;;;;;;;;;;;;;;;19.57;36.34;100909.53;5073056;28;20386;-63
2020/12/21 00:09:30;;;;;;;;;;;;;;;19.48;36.80;100908.28;5056093;28;19924;-64
2020/12/21 00:11:57;;;;;;;;;;;;;;;19.45;36.61;100904.09;5074065;28;19930;-63
2020/12/21 00:14:23;;;;;;;;;;;;;;;19.74;36.12;100900.06;5058512;28;19925;-63
2020/12/21 00:16:50;;;;;;;;;;;;;;;19.67;36.08;100906.91;5073363;28;20007;-62
2020/12/21 00:19:18;;;;;;;;;;;;;;;19.79;35.61;100912.25;5052594;28;20341;-63
2020/12/21 00:21:48;;;;;;;;;;;;;;;19.79;35.36;100909.50;5070733;28;19924;-63
2020/12/21 00:24:14;;;;;;;;;;;;;;;19.57;35.53;100913.13;5072130;28;19960;-63
2020/12/21 00:26:44;;;;;;;;;;;;;;;19.41;36.24;100914.84;5073264;28;19924;-63
2020/12/21 00:29:11;;;;;;;;;;;;;;;19.23;36.98;100925.38;5071731;28;19925;-64
2020/12/21 00:31:37;;;;;;;;;;;;;;;19.25;36.88;100932.31;5052379;28;19925;-63
2020/12/21 00:34:03;;;;;;;;;;;;;;;19.33;36.56;100929.13;5049696;28;20298;-64
2020/12/21 00:36:35;;;;;;;;;;;;;;;19.57;36.34;100928.88;5068968;28;19965;-63
2020/12/21 00:39:02;;;;;;;;;;;;;;;19.43;36.23;100934.75;5061348;28;19947;-65
2020/12/21 00:41:28;;;;;;;;;;;;;;;19.58;36.07;100930.56;5070860;28;19924;-63
2020/12/21 00:43:55;;;;;;;;;;;;;;;19.30;36.35;100932.41;5072821;28;20386;-63
2020/12/21 00:46:22;;;;;;;;;;;;;;;19.18;36.84;100937.19;5073207;28;20305;-63
2020/12/21 00:48:48;;;;;;;;;;;;;;;19.07;37.20;100935.38;5051834;28;20420;-63
2020/12/21 00:51:15;;;;;;;;;;;;;;;19.19;37.37;100938.03;5067126;28;19951;-63
2020/12/21 00:53:42;;;;;;;;;;;;;;;19.15;36.67;100932.19;5055937;28;19971;-63
2020/12/21 00:56:09;;;;;;;;;;;;;;;19.33;36.66;100931.06;5052151;28;20019;-63
2020/12/21 00:58:35;;;;;;;;;;;;;;;19.24;36.54;100935.34;5055426;28;20399;-63
2020/12/21 01:01:07;;;;;;;;;;;;;;;19.37;36.33;100935.81;5072724;28;20352;-63
2020/12/21 01:03:49;;;;;;;;;;;;;;;19.14;36.88;100935.19;5066237;28;19968;-63
2020/12/21 01:06:16;;;;;;;;;;;;;;;19.23;36.59;100934.50;5066061;28;19964;-63
2020/12/21 01:08:43;;;;;;;;;;;;;;;19.08;37.10;100929.59;5072378;28;20309;-63
2020/12/21 01:11:10;;;;;;;;;;;;;;;19.01;37.08;100928.97;5068277;28;20402;-63
2020/12/21 01:13:37;;;;;;;;;;;;;;;18.96;36.85;100931.66;5070302;28;19956;-63
2020/12/21 01:16:04;;;;;;;;;;;;;;;19.29;36.21;100943.72;5068424;28;20303;-64
2020/12/21 01:18:30;;;;;;;;;;;;;;;19.22;36.59;100946.66;5070672;28;19924;-63
2020/12/21 01:20:57;;;;;;;;;;;;;;;19.22;36.89;100943.88;5053271;28;19932;-63
2020/12/21 01:23:23;;;;;;;;;;;;;;;19.24;36.82;100947.25;5071956;28;19925;-63
2020/12/21 01:25:49;;;;;;;;;;;;;;;19.65;35.95;100945.03;5072535;28;20433;-63
2020/12/21 01:28:15;;;;;;;;;;;;;;;19.60;35.79;100944.97;5072568;28;20352;-65
2020/12/21 01:30:42;;;;;;;;;;;;;;;19.50;36.00;100950.31;5067521;28;19994;-63
2020/12/21 01:33:09;;;;;;;;;;;;;;;19.54;36.02;100957.06;5066827;28;20023;-63
2020/12/21 01:35:35;;;;;;;;;;;;;;;19.44;36.05;100946.66;5050804;28;19925;-63
2020/12/21 01:38:02;;;;;;;;;;;;;;;19.63;35.75;100958.28;5063481;28;20196;-63
2020/12/21 01:40:28;;;;;;;;;;;;;;;19.73;35.00;100950.13;5067567;28;20311;-63
2020/12/21 01:42:54;;;;;;;;;;;;;;;19.64;35.45;100951.66;5065600;28;19981;-63
2020/12/21 01:45:20;;;;;;;;;;;;;;;19.42;35.66;100957.97;5067541;28;20027;-63
2020/12/21 01:47:46;;;;;;;;;;;;;;;19.04;36.33;100953.31;5063602;28;19932;-63
2020/12/21 01:50:13;;;;;;;;;;;;;;;18.98;36.36;100950.75;5070739;28;19931;-63
2020/12/21 01:52:40;;;;;;;;;;;;;;;19.08;36.45;100953.63;5070461;28;19924;-63
2020/12/21 01:55:06;;;;;;;;;;;;;;;19.18;36.49;100951.00;5068681;28;19932;-62
2020/12/21 01:57:33;;;;;;;;;;;;;;;19.15;36.58;100954.28;5071118;28;19925;-63
2020/12/21 02:00:06;;;;;;;;;;;;;;;19.31;36.54;100952.59;5066295;28;20410;-62
2020/12/21 02:02:39;;;;;;;;;;;;;;;19.19;36.52;100952.69;5056251;28;19925;-64
2020/12/21 02:05:05;;;;;;;;;;;;;;;19.01;36.92;100947.47;5071614;28;20290;-65
2020/12/21 02:07:31;;;;;;;;;;;;;;;19.02;36.44;100946.38;5076611;28;20304;-63
2020/12/21 02:09:57;;;;;;;;;;;;;;;19.27;36.51;100945.91;5071409;28;19956;-62
2020/12/21 02:12:23;;;;;;;;;;;;;;;19.57;35.93;100948.25;5066198;28;20414;-63
2020/12/21 02:14:50;;;;;;;;;;;;;;;19.50;35.98;100947.56;5056542;28;19925;-63
2020/12/21 02:17:16;;;;;;;;;;;;;;;19.61;35.79;100947.47;5066060;28;19924;-62
2020/12/21 02:19:43;;;;;;;;;;;;;;;19.73;35.57;100955.66;5070228;28;22256;-62
2020/12/21 02:22:11;;;;;;;;;;;;;;;19.66;35.71;100955.00;5071429;28;19924;-63
2020/12/21 02:24:39;;;;;;;;;;;;;;;19.65;35.87;100958.88;5066474;28;20305;-64
2020/12/21 02:27:06;;;;;;;;;;;;;;;19.69;35.95;100957.25;5050341;28;20417;-62
2020/12/21 02:29:32;;;;;;;;;;;;;;;19.43;36.22;100961.56;5061851;28;20449;-62
2020/12/21 02:31:59;;;;;;;;;;;;;;;19.27;36.50;100956.94;5067514;28;20015;-62
2020/12/21 02:34:27;;;;;;;;;;;;;;;19.17;36.58;100957.63;5069778;28;19959;-63
2020/12/21 02:36:54;;;;;;;;;;;;;;;19.01;36.54;100950.22;5069322;28;20329;-64
2020/12/21 02:39:20;;;;;;;;;;;;;;;19.06;37.08;100955.81;5067001;28;19925;-62
2020/12/21 02:41:46;;;;;;;;;;;;;;;19.00;36.77;100954.09;5068907;28;19979;-63
2020/12/21 02:44:13;;;;;;;;;;;;;;;18.93;36.80;100956.19;5066367;28;19925;-63
2020/12/21 02:46:41;;;;;;;;;;;;;;;18.77;37.11;100954.25;5063817;28;19928;-63
2020/12/21 02:49:08;;;;;;;;;;;;;;;18.91;37.29;100955.59;5071235;28;20008;-63
2020/12/21 02:51:34;;;;;;;;;;;;;;;19.03;37.01;100950.81;5071814;28;19963;-63
2020/12/21 02:54:00;;;;;;;;;;;;;;;18.75;37.58;100949.81;5071916;28;20537;-63
2020/12/21 02:56:27;;;;;;;;;;;;;;;18.72;37.62;100950.31;5070598;28;19928;-63
2020/12/21 02:58:54;;;;;;;;;;;;;;;18.74;37.48;100948.16;5070852;28;20350;-62
2020/12/21 03:01:20;;;;;;;;;;;;;;;18.73;37.52;100956.69;5065804;28;19925;-63
2020/12/21 03:03:46;;;;;;;;;;;;;;;18.63;37.83;100946.34;5064539;28;19932;-64
2020/12/21 03:06:13;;;;;;;;;;;;;;;18.64;37.70;100953.53;5066046;28;19932;-64
2020/12/21 03:08:40;;;;;;;;;;;;;;;18.75;37.39;100948.97;5061580;28;21146;-63
2020/12/21 03:11:10;;;;;;;;;;;;;;;19.02;37.22;100954.66;5074431;28;20077;-63
2020/12/21 03:13:50;;;;;;;;;;;;;;;19.35;36.60;100959.28;5062184;28;20376;-62
2020/12/21 03:16:16;;;;;;;;;;;;;;;19.36;36.41;100961.78;5072526;28;19931;-63
2020/12/21 03:18:43;;;;;;;;;;;;;;;19.11;36.65;100958.66;5072978;28;19925;-62
2020/12/21 03:21:09;;;;;;;;;;;;;;;19.25;36.46;100959.13;5072924;28;20569;-63
2020/12/21 03:23:35;;;;;;;;;;;;;;;19.05;36.93;100959.69;5072024;28;19931;-63
2020/12/21 03:26:03;;;;;;;;;;;;;;;19.31;36.58;100964.47;5071712;28;19963;-63
2020/12/21 03:28:29;;;;;;;;;;;;;;;19.22;36.31;100954.94;5058280;28;19932;-63
2020/12/21 03:30:55;;;;;;;;;;;;;;;19.66;35.98;100955.00;5074004;28;20314;-63
2020/12/21 03:33:22;;;;;;;;;;;;;;;19.51;36.27;100960.34;5073765;28;19924;-63
2020/12/21 03:35:48;;;;;;;;;;;;;;;19.51;35.87;100957.56;5067842;28;20397;-63
2020/12/21 03:38:14;;;;;;;;;;;;;;;19.26;36.48;100947.81;5058742;28;19952;-64
2020/12/21 03:40:41;;;;;;;;;;;;;;;19.17;36.48;100945.75;5074061;28;19963;-63
2020/12/21 03:43:07;;;;;;;;;;;;;;;19.09;36.76;100938.72;5069715;28;20024;-62
2020/12/21 03:45:33;;;;;;;;;;;;;;;19.14;37.00;100940.72;5066473;28;20394;-63
2020/12/21 03:47:59;;;;;;;;;;;;;;;19.04;36.97;100933.16;5072880;28;19924;-63
2020/12/21 03:50:25;;;;;;;;;;;;;;;19.11;36.72;100931.00;5073529;28;20371;-62
2020/12/21 03:52:51;;;;;;;;;;;;;;;19.51;36.33;100938.22;5074059;28;19924;-63
2020/12/21 03:55:18;;;;;;;;;;;;;;;19.58;35.83;100941.63;5073653;28;19931;-63
2020/12/21 03:57:44;;;;;;;;;;;;;;;19.55;35.86;100954.03;5070418;28;19965;-63
2020/12/21 04:00:11;;;;;;;;;;;;;;;19.74;35.71;100952.63;5062169;28;19932;-63
2020/12/21 04:02:40;;;;;;;;;;;;;;;19.89;35.38;100953.88;5069559;28;20426;-63
2020/12/21 04:05:06;;;;;;;;;;;;;;;19.91;35.06;100951.69;5063733;28;19925;-63
2020/12/21 04:07:36;;;;;;;;;;;;;;;19.89;35.24;100951.13;5069557;28;20381;-64
2020/12/21 04:10:03;;;;;;;;;;;;;;;19.88;35.14;100947.50;5074110;28;19928;-63
2020/12/21 04:12:30;;;;;;;;;;;;;;;19.67;35.59;100951.97;5073420;28;20352;-64
2020/12/21 04:14:57;;;;;;;;;;;;;;;19.67;35.82;100945.63;5073243;28;20019;-63
2020/12/21 04:17:23;;;;;;;;;;;;;;;19.32;36.21;100955.09;5075576;28;19924;-65
2020/12/21 04:19:49;;;;;;;;;;;;;;;19.07;36.44;100941.75;5079417;28;19925;-65
2020/12/21 04:22:15;;;;;;;;;;;;;;;19.37;36.27;100952.41;5074549;28;20014;-65
2020/12/21 04:24:42;;;;;;;;;;;;;;;19.55;35.79;100950.44;5071685;28;19932;-66
2020/12/21 04:27:08;;;;;;;;;;;;;;;19.43;35.99;100945.00;5092730;22;19970;-60
2020/12/21 04:29:35;;;;;;;;;;;;;;;19.15;36.19;100942.41;5080700;28;20432;-62
2020/12/21 04:32:02;;;;;;;;;;;;;;;19.43;36.35;100945.81;5084206;28;19925;-61
2020/12/21 04:34:28;;;;;;;;;;;;;;;19.31;36.09;100944.28;5062359;28;19931;-61
2020/12/21 04:36:54;;;;;;;;;;;;;;;19.34;36.21;100946.53;5058536;28;20279;-60
2020/12/21 04:39:23;;;;;;;;;;;;;;;19.19;36.47;100938.88;5052771;28;19925;-62
2020/12/21 04:41:53;;;;;;;;;;;;;;;19.18;36.66;100942.72;5052567;28;19931;-61
2020/12/21 04:44:20;;;;;;;;;;;;;;;19.21;36.03;100947.75;5052573;28;20402;-61
2020/12/21 04:46:47;;;;;;;;;;;;;;;19.30;36.30;100950.91;5052611;28;19925;-61
2020/12/21 04:49:16;;;;;;;;;;;;;;;19.75;35.48;100954.28;5052637;28;19928;-63
2020/12/21 04:51:44;;;;;;;;;;;;;;;19.84;35.15;100946.34;5055122;28;19956;-61
2020/12/21 04:54:10;;;;;;;;;;;;;;;19.87;34.88;100948.59;5059446;28;19925;-61
2020/12/21 04:56:36;;;;;;;;;;;;;;;19.89;34.78;100949.19;5035195;28;19929;-61
2020/12/21 04:59:03;;;;;;;;;;;;;;;19.76;35.09;100955.09;5032084;28;19932;-60
2020/12/21 05:01:30;;;;;;;;;;;;;;;19.74;35.25;100952.63;5054663;28;20295;-60
2020/12/21 05:03:57;;;;;;;;;;;;;;;19.72;35.45;100952.03;5043520;28;20335;-60
2020/12/21 05:06:23;;;;;;;;;;;;;;;19.47;35.71;100957.22;5038852;28;20403;-62
2020/12/21 05:09:00;;;;;;;;;;;;;;;19.40;35.71;100957.41;5038950;28;19932;-61
2020/12/21 05:11:27;;;;;;;;;;;;;;;19.45;35.69;100958.56;5050865;28;19924;-60
2020/12/21 05:14:03;;;;;;;;;;;;;;;19.36;35.39;100956.25;5045636;28;19932;-61
2020/12/21 05:16:30;;;;;;;;;;;;;;;19.53;35.11;100947.91;5030915;28;19931;-61
2020/12/21 05:18:56;;;;;;;;;;;;;;;19.29;35.67;100944.53;5030411;28;19936;-61
2020/12/21 05:21:25;;;;;;;;;;;;;;;19.09;36.02;100947.00;5041950;28;20011;-60
2020/12/21 05:23:55;;;;;;;;;;;;;;;18.99;36.28;100953.25;5048858;28;19925;-62
2020/12/21 05:26:25;;;;;;;;;;;;;;;18.81;36.62;100947.13;5048605;28;19925;-60
2020/12/21 05:28:51;;;;;;;;;;;;;;;18.87;36.44;100946.13;5048052;28;20477;-60
2020/12/21 05:31:17;;;;;;;;;;;;;;;19.02;36.37;100949.13;5043649;28;19925;-61
2020/12/21 05:33:44;;;;;;;;;;;;;;;19.11;35.90;100942.06;5029221;28;20395;-60
2020/12/21 05:36:11;;;;;;;;;;;;;;;19.19;35.96;100949.94;5031526;28;19932;-62
2020/12/21 05:38:38;;;;;;;;;;;;;;;19.14;35.98;100944.31;5031321;28;19924;-62
2020/12/21 05:41:12;;;;;;;;;;;;;;;19.19;35.64;100949.09;5037628;28;19932;-60
2020/12/21 05:43:39;;;;;;;;;;;;;;;19.41;35.31;100958.22;5048601;28;20035;-62
2020/12/21 05:46:15;;;;;;;;;;;;;;;19.52;34.98;100954.53;5048303;28;20461;-61
2020/12/21 05:48:43;;;;;;;;;;;;;;;19.40;34.88;100951.88;5033311;28;19932;-59
2020/12/21 05:51:10;;;;;;;;;;;;;;;19.28;35.21;100945.63;5050917;28;19979;-60
2020/12/21 05:53:43;;;;;;;;;;;;;;;19.25;35.61;100943.38;5050052;28;19932;-62
2020/12/21 05:56:09;;;;;;;;;;;;;;;19.09;35.62;100939.56;5051068;28;19931;-61
2020/12/21 05:58:36;;;;;;;;;;;;;;;18.96;35.77;100933.56;5049815;28;19925;-60
2020/12/21 06:01:05;;;;;;;;;;;;;;;18.82;36.67;100943.28;5039145;28;19931;-62
2020/12/21 06:03:36;;;;;;;;;;;;;;;18.97;36.03;100946.28;5050099;28;20306;-61
2020/12/21 06:06:06;;;;;;;;;;;;;;;18.87;36.23;100937.84;5051093;28;19990;-60
2020/12/21 06:08:33;;;;;;;;;;;;;;;18.81;36.05;100936.09;5050307;28;19949;-61
2020/12/21 06:10:59;;;;;;;;;;;;;;;18.69;36.67;100947.25;5049968;28;19935;-61
2020/12/21 06:13:26;;;;;;;;;;;;;;;18.57;36.73;100943.69;5050037;28;19924;-60
2020/12/21 06:15:52;;;;;;;;;;;;;;;18.63;36.55;100935.28;5049939;28;19924;-63
2020/12/21 06:18:19;;;;;;;;;;;;;;;18.81;36.08;100952.66;5050859;28;20326;-61
2020/12/21 06:20:45;;;;;;;;;;;;;;;18.88;35.94;100953.34;5049656;28;20011;-61
2020/12/21 06:23:11;;;;;;;;;;;;;;;19.09;35.77;100953.38;5050976;28;19948;-61
2020/12/21 06:25:38;;;;;;;;;;;;;;;19.45;34.97;100958.56;5050756;28;19964;-62
2020/12/21 06:28:07;;;;;;;;;;;;;;;19.37;34.78;100960.69;5050437;28;19925;-61
2020/12/21 06:30:34;;;;;;;;;;;;;;;19.28;34.85;100959.47;5050841;28;19925;-60
2020/12/21 06:33:01;;;;;;;;;;;;;;;19.24;35.23;100954.69;5050744;28;19931;-61
2020/12/21 06:35:28;;;;;;;;;;;;;;;19.54;34.46;100951.53;5051215;28;20378;-61
2020/12/21 06:38:01;;;;;;;;;;;;;;;19.60;34.38;100956.03;5050407;28;19932;-59
2020/12/21 06:40:32;;;;;;;;;;;;;;;19.60;34.19;100951.34;5049469;28;19925;-59
2020/12/21 06:43:10;;;;;;;;;;;;;;;19.56;34.38;100960.41;5050654;28;19932;-60
2020/12/21 06:45:37;;;;;;;;;;;;;;;19.49;34.45;100955.03;5053454;28;20311;-61
2020/12/21 06:48:04;;;;;;;;;;;;;;;19.48;34.37;100961.66;5054267;28;19925;-63
2020/12/21 06:50:30;;;;;;;;;;;;;;;19.43;35.03;100972.63;5055234;28;19924;-63
2020/12/21 06:52:57;;;;;;;;;;;;;;;19.77;33.97;100965.06;5053877;28;20015;-62
2020/12/21 06:55:31;;;;;;;;;;;;;;;19.75;34.03;100975.59;5055218;28;19925;-63
2020/12/21 06:57:58;;;;;;;;;;;;;;;19.41;34.59;100974.81;5053196;28;19964;-61
2020/12/21 07:00:24;;;;;;;;;;;;;;;19.45;34.57;100977.91;5054370;28;19925;-61
2020/12/21 07:02:50;;;;;;;;;;;;;;;19.50;34.54;100975.22;5053269;28;20337;-61
2020/12/21 07:05:18;;;;;;;;;;;;;;;19.33;34.63;100972.50;5054255;28;19925;-61
2020/12/21 07:07:44;;;;;;;;;;;;;;;19.18;34.97;100978.66;5054363;28;20015;-62
2020/12/21 07:10:11;;;;;;;;;;;;;;;19.20;34.80;100979.22;5054042;28;19924;-59
2020/12/21 07:12:37;;;;;;;;;;;;;;;19.16;34.95;100983.59;5053100;28;19925;-61
2020/12/21 07:15:04;;;;;;;;;;;;;;;18.97;35.32;100980.28;5054411;28;19925;-60
2020/12/21 07:17:31;;;;;;;;;;;;;;;19.21;34.99;100975.38;5053177;28;19928;-60
2020/12/21 07:20:00;;;;;;;;;;;;;;;18.99;35.17;100969.81;5069494;28;20306;-61
2020/12/21 07:22:28;;;;;;;;;;;;;;;19.02;35.37;100972.06;5054258;28;19939;-61
2020/12/21 07:24:54;;;;;;;;;;;;;;;19.18;34.74;100980.56;5052771;28;19933;-60
2020/12/21 07:27:21;;;;;;;;;;;;;;;19.24;34.57;100974.03;5036341;28;19932;-62
2020/12/21 07:29:47;;;;;;;;;;;;;;;19.24;34.37;100972.13;5069584;28;20289;-62
2020/12/21 07:32:13;;;;;;;;;;;;;;;19.37;34.19;100976.44;5054035;28;19929;-62
2020/12/21 07:34:40;;;;;;;;;;;;;;;19.10;34.61;100981.84;5052958;28;19933;-61
2020/12/21 07:37:09;;;;;;;;;;;;;;;18.99;34.74;100977.28;5054068;28;19931;-63
2020/12/21 07:39:35;;;;;;;;;;;;;;;19.23;34.58;100987.03;5052504;28;19925;-61
2020/12/21 07:42:03;;;;;;;;;;;;;;;19.72;33.15;100992.69;5053158;28;19931;-63
2020/12/21 07:44:33;;;;;;;;;;;;;;;19.88;32.64;100989.00;5049101;28;20112;-60
2020/12/21 07:47:15;;;;;;;;;;;;;;;20.08;32.19;101003.09;5045094;28;20016;-62
2020/12/21 07:49:42;;;;;;;;;;;;;;;20.22;32.01;101003.50;5035452;28;19932;-63
2020/12/21 07:52:08;;;;;;;;;;;;;;;20.33;32.08;101005.28;5068834;28;20410;-62
2020/12/21 07:54:37;;;;;;;;;;;;;;;20.50;31.55;101004.34;5052061;28;19925;-61
2020/12/21 07:57:04;;;;;;;;;;;;;;;20.65;31.20;101002.56;5051373;28;19974;-61
2020/12/21 07:59:30;;;;;;;;;;;;;;;20.77;31.15;101001.56;5051732;28;20422;-60
2020/12/21 08:02:03;;;;;;;;;;;;;;;20.66;31.61;101009.78;5053400;28;19925;-61
2020/12/21 08:04:30;;;;;;;;;;;;;;;20.51;31.68;101012.41;5036224;28;19925;-62
2020/12/21 08:07:05;;;;;;;;;;;;;;;20.56;31.58;101009.69;5054655;28;19949;-61
2020/12/21 08:09:32;;;;;;;;;;;;;;;20.67;31.22;101005.09;5052772;28;19925;-63
2020/12/21 08:11:59;;;;;;;;;;;;;;;20.68;31.01;101002.06;5052211;28;19955;-63
2020/12/21 08:14:25;;;;;;;;;;;;;;;20.74;31.19;101001.00;5049677;28;19925;-61
2020/12/21 08:16:51;;;;;;;;;;;;;;;20.96;31.06;101003.66;5067337;28;20383;-61
2020/12/21 08:19:23;;;;;;;;;;;;;;;21.25;30.43;100998.63;5053507;28;19924;-62
2020/12/21 08:21:49;;;;;;;;;;;;;;;21.63;30.11;101002.16;5053436;28;19925;-63
2020/12/21 08:24:16;;;;;;;;;;;;;;;21.84;29.73;101003.06;5054528;28;19925;-62
2020/12/21 08:26:42;;;;;;;;;;;;;;;22.17;29.34;101004.63;5054764;28;20024;-62
2020/12/21 08:29:17;;;;;;;;;;;;;;;22.33;28.95;100995.22;5054697;28;20137;-62
2020/12/21 08:31:44;;;;;;;;;;;;;;;22.46;28.42;100997.47;5035983;28;19931;-61
2020/12/21 08:34:13;;;;;;;;;;;;;;;22.63;28.55;100983.28;5051454;28;20020;-61
2020/12/21 08:36:39;;;;;;;;;;;;;;;22.89;27.87;100984.13;5051886;28;19928;-62
2020/12/21 08:39:08;;;;;;;;;;;;;;;23.10;27.78;100991.38;5052498;28;19987;-62
2020/12/21 08:41:35;;;;;;;;;;;;;;;23.28;27.47;100987.16;5052871;28;20326;-62
2020/12/21 08:44:03;;;;;;;;;;;;;;;23.39;27.14;100986.84;5051679;28;19925;-61
2020/12/21 08:46:29;;;;;;;;;;;;;;;23.35;27.35;100984.91;5052640;28;19971;-61
2020/12/21 08:48:55;;;;;;;;;;;;;;;23.29;27.30;100984.09;5054531;28;20401;-61
2020/12/21 08:51:22;;;;;;;;;;;;;;;23.37;27.36;100982.69;5033268;28;19956;-61
2020/12/21 08:53:57;;;;;;;;;;;;;;;23.48;27.10;100983.50;5062942;28;20410;-62
2020/12/21 08:56:23;;;;;;;;;;;;;;;23.58;26.94;100981.53;5052512;28;20011;-62
2020/12/21 08:58:50;;;;;;;;;;;;;;;23.42;26.83;100990.19;5051434;28;19935;-62
2020/12/21 09:01:16;;;;;;;;;;;;;;;23.20;27.39;101002.47;5051999;28;19929;-63
2020/12/21 09:03:42;;;;;;;;;;;;;;;23.19;27.60;100997.19;5052502;28;19940;-62
2020/12/21 09:06:14;;;;;;;;;;;;;;;23.54;27.23;100991.59;5050806;28;19925;-62
2020/12/21 09:08:53;;;;;;;;;;;;;;;23.95;26.62;100997.78;5051927;28;19994;-62
2020/12/21 09:11:20;;;;;;;;;;;;;;;24.30;26.39;100993.16;5052174;28;19928;-61
2020/12/21 09:13:47;;;;;;;;;;;;;;;24.38;26.02;100985.03;5051356;28;19925;-63
2020/12/21 09:16:17;;;;;;;;;;;;;;;24.72;25.81;100987.84;5048884;28;19964;-61
2020/12/21 09:18:43;;;;;;;;;;;;;;;24.90;25.11;100979.91;5051208;28;19932;-62
2020/12/21 09:21:09;;;;;;;;;;;;;;;24.91;25.25;100990.75;5052429;28;20024;-62
2020/12/21 09:23:36;;;;;;;;;;;;;;;24.73;25.82;100983.94;5051296;28;20353;-61
2020/12/21 09:26:03;;;;;;;;;;;;;;;24.81;25.66;100981.66;5052657;28;19924;-61
2020/12/21 09:28:29;;;;;;;;;;;;;;;24.98;25.39;100982.06;5050947;28;19928;-63
2020/12/21 09:30:55;;;;;;;;;;;;;;;24.89;25.42;100981.03;5052277;28;20280;-63
2020/12/21 09:33:22;;;;;;;;;;;;;;;24.59;25.54;100977.38;5052660;28;20178;-61
2020/12/21 09:35:48;;;;;;;;;;;;;;;24.19;26.00;100977.63;5051717;28;19932;-61
2020/12/21 09:38:14;;;;;;;;;;;;;;;23.99;26.47;100984.13;5050598;28;20390;-60
2020/12/21 09:40:41;;;;;;;;;;;;;;;24.17;26.41;100977.06;5030619;28;19925;-61
2020/12/21 09:43:07;;;;;;;;;;;;;;;24.27;26.20;100982.59;5044515;28;19925;-61
2020/12/21 09:45:33;;;;;;;;;;;;;;;24.46;25.95;100971.63;5051776;28;20055;-61
2020/12/21 09:48:00;;;;;;;;;;;;;;;24.57;25.78;100974.03;5051343;28;19929;-61
2020/12/21 09:50:26;;;;;;;;;;;;;;;24.69;25.74;100966.13;5051460;28;20387;-61
2020/12/21 09:52:52;;;;;;;;;;;;;;;24.74;25.74;100956.88;5050157;28;19940;-61
2020/12/21 09:55:18;;;;;;;;;;;;;;;24.60;25.66;100965.06;5051495;28;19931;-61
2020/12/21 09:57:44;;;;;;;;;;;;;;;24.76;25.55;100960.22;5051501;28;19925;-61
2020/12/21 10:00:11;;;;;;;;;;;;;;;24.67;25.49;100961.97;5049640;28;19932;-61
2020/12/21 10:02:37;;;;;;;;;;;;;;;24.61;25.90;100955.59;5050329;28;19931;-61
2020/12/21 10:05:04;;;;;;;;;;;;;;;24.86;25.67;100953.72;5051373;28;20011;-62
2020/12/21 10:07:30;;;;;;;;;;;;;;;25.17;25.23;100948.69;5050885;28;20009;-61
2020/12/21 10:09:56;;;;;;;;;;;;;;;25.37;24.84;100946.50;5050771;28;20114;-61
2020/12/21 10:12:22;;;;;;;;;;;;;;;25.55;24.55;100942.09;5051704;28;19925;-61
2020/12/21 10:14:49;;;;;;;;;;;;;;;25.58;24.62;100938.72;5066278;28;19925;-60
2020/12/21 10:17:15;;;;;;;;;;;;;;;25.71;24.61;100942.75;5066677;28;20306;-61
2020/12/21 10:19:41;;;;;;;;;;;;;;;25.73;24.52;100939.66;5049216;28;20303;-61
2020/12/21 10:22:07;;;;;;;;;;;;;;;25.74;24.33;100941.31;5051427;28;20023;-61
2020/12/21 10:24:33;;;;;;;;;;;;;;;25.69;24.55;100937.47;5051480;28;20284;-60
2020/12/21 10:27:00;;;;;;;;;;;;;;;25.66;24.51;100928.84;5088489;22;19931;-63
2020/12/21 10:29:26;;;;;;;;;;;;;;;25.72;24.52;100927.66;5029056;28;19931;-63
2020/12/21 10:31:52;;;;;;;;;;;;;;;25.88;24.29;100925.50;5047122;28;19925;-63
2020/12/21 10:34:19;;;;;;;;;;;;;;;26.02;23.96;100916.06;5033649;28;19925;-62
2020/12/21 10:36:48;;;;;;;;;;;;;;;26.14;23.88;100921.19;5050011;28;19925;-63
2020/12/21 10:39:14;;;;;;;;;;;;;;;26.19;24.17;100911.91;5064792;28;19972;-63
2020/12/21 10:41:41;;;;;;;;;;;;;;;26.14;24.09;100912.81;5046314;28;19929;-62
2020/12/21 10:44:07;;;;;;;;;;;;;;;26.15;23.90;100908.06;5047050;28;19925;-63
2020/12/21 10:46:33;;;;;;;;;;;;;;;26.12;24.06;100903.06;5033169;28;19979;-63
2020/12/21 10:48:59;;;;;;;;;;;;;;;26.11;24.05;100895.81;5033469;28;19932;-63
2020/12/21 10:51:29;;;;;;;;;;;;;;;26.30;24.24;100899.44;5050917;28;19924;-63
2020/12/21 10:53:55;;;;;;;;;;;;;;;26.42;23.62;100894.22;5050805;28;20345;-63
2020/12/21 10:56:24;;;;;;;;;;;;;;;26.44;23.67;100889.16;5022901;28;20395;-63
2020/12/21 10:58:51;;;;;;;;;;;;;;;26.41;23.87;100878.59;5049945;28;19943;-63
2020/12/21 11:01:17;;;;;;;;;;;;;;;26.40;23.66;100882.50;5050598;28;20395;-63
2020/12/21 11:03:43;;;;;;;;;;;;;;;26.37;23.55;100883.13;5049957;28;19967;-62
2020/12/21 11:06:10;;;;;;;;;;;;;;;26.29;23.66;100881.00;5049361;28;19924;-63
2020/12/21 11:08:37;;;;;;;;;;;;;;;26.06;23.91;100879.97;5050755;28;20397;-63
2020/12/21 11:11:04;;;;;;;;;;;;;;;25.86;24.11;100878.31;5047481;28;19929;-63
2020/12/21 11:13:31;;;;;;;;;;;;;;;25.59;24.38;100872.56;5049532;28;19925;-62
2020/12/21 11:15:57;;;;;;;;;;;;;;;25.37;24.77;100868.34;5049441;28;19925;-62
2020/12/21 11:18:23;;;;;;;;;;;;;;;25.19;25.03;100869.16;5050664;28;19925;-63
2020/12/21 11:20:49;;;;;;;;;;;;;;;25.14;25.33;100868.38;5050661;28;19995;-65
2020/12/21 11:23:16;;;;;;;;;;;;;;;25.11;25.32;100867.00;5050743;28;19978;-63
2020/12/21 11:25:42;;;;;;;;;;;;;;;25.10;25.41;100865.34;5051101;28;20032;-63
2020/12/21 11:28:10;;;;;;;;;;;;;;;25.15;25.58;100858.88;5050701;28;20331;-64
2020/12/21 11:30:36;;;;;;;;;;;;;;;25.07;25.65;100857.56;5052023;28;20382;-63
2020/12/21 11:33:02;;;;;;;;;;;;;;;24.93;25.54;100851.03;5037167;28;19931;-64
2020/12/21 11:35:28;;;;;;;;;;;;;;;24.79;25.79;100852.84;5053524;28;19925;-62
2020/12/21 11:37:56;;;;;;;;;;;;;;;24.67;25.75;100856.03;5056140;28;19925;-63
2020/12/21 11:40:23;;;;;;;;;;;;;;;24.52;26.25;100845.88;5048536;28;20003;-63
2020/12/21 11:42:50;;;;;;;;;;;;;;;24.67;25.90;100851.28;5054507;28;19925;-63
2020/12/21 11:45:16;;;;;;;;;;;;;;;24.41;26.30;100840.69;5053511;28;20425;-62
2020/12/21 11:47:42;;;;;;;;;;;;;;;24.24;26.54;100841.09;5054451;28;20348;-63
2020/12/21 11:50:08;;;;;;;;;;;;;;;24.04;26.80;100831.75;5053303;28;19947;-61
2020/12/21 11:52:35;;;;;;;;;;;;;;;23.96;27.03;100842.69;5038868;28;19939;-65
2020/12/21 11:55:01;;;;;;;;;;;;;;;23.98;26.98;100824.56;5053464;28;19929;-63
2020/12/21 11:57:28;;;;;;;;;;;;;;;23.94;26.97;100820.69;5053006;28;19924;-63
2020/12/21 11:59:55;;;;;;;;;;;;;;;23.81;27.33;100826.94;5053098;28;19925;-63
2020/12/21 12:02:21;;;;;;;;;;;;;;;23.73;27.39;100820.03;5048536;28;19929;-62
2020/12/21 12:04:47;;;;;;;;;;;;;;;23.67;27.59;100821.16;5054007;28;20438;-62
2020/12/21 12:07:14;;;;;;;;;;;;;;;23.63;27.55;100820.09;5054649;28;19924;-63
2020/12/21 12:09:41;;;;;;;;;;;;;;;23.57;27.75;100820.41;5052048;28;19971;-63
2020/12/21 12:12:07;;;;;;;;;;;;;;;23.45;27.77;100814.34;5056197;28;19925;-63
2020/12/21 12:14:33;;;;;;;;;;;;;;;23.43;27.75;100813.78;5048312;28;19964;-63
2020/12/21 12:16:59;;;;;;;;;;;;;;;23.28;28.17;100817.47;5042815;28;20456;-63
2020/12/21 12:19:26;;;;;;;;;;;;;;;23.16;28.31;100805.88;5036876;28;19932;-63
2020/12/21 12:21:52;;;;;;;;;;;;;;;23.01;28.52;100809.53;5054765;28;20385;-63
2020/12/21 12:24:19;;;;;;;;;;;;;;;23.04;28.38;100798.69;5054050;28;19978;-63
2020/12/21 12:26:45;;;;;;;;;;;;;;;23.08;28.18;100807.28;5036344;28;19928;-64
2020/12/21 12:29:12;;;;;;;;;;;;;;;23.20;28.09;100810.59;5053082;28;20015;-64
2020/12/21 12:31:38;;;;;;;;;;;;;;;23.21;28.10;100812.25;5052528;28;19932;-64
2020/12/21 12:34:04;;;;;;;;;;;;;;;23.23;28.18;100809.16;5053971;28;19937;-62
2020/12/21 12:36:31;;;;;;;;;;;;;;;23.08;28.38;100817.56;5052138;28;19948;-62